Time;durP1;ratioP1;P1;durP2;ratioP2;P2;SDS_P1;SDS_P2;PMS_P1;PMS_P2;Temp;Humidity;BMP_temperature;BMP_pressure;BME280_temperature;BME280_humidity;BME280_pressure;Samples;Min_cycle;Max_cycle;Signal;HPM_P1;HPM_P2
2023/07/08 00:00:48;;;;;;;3.72;2.85;;;;;;;18.26;100.00;101066.84;6149568;28;20047;-92
2023/07/08 00:03:50;;;;;;;4.97;2.80;;;;;;;18.18;100.00;101066.81;6155786;28;20527;-91
2023/07/08 00:06:52;;;;;;;6.60;3.13;;;;;;;18.13;100.00;101074.34;6155499;28;20050;-92
2023/07/08 00:09:54;;;;;;;3.95;3.10;;;;;;;18.13;100.00;101069.91;6145331;28;20046;-92
2023/07/08 00:12:58;;;;;;;3.08;2.60;;;;;;;18.13;100.00;101061.25;6141161;28;20118;-91
2023/07/08 00:15:59;;;;;;;3.88;2.60;;;;;;;18.11;100.00;101064.03;6141564;28;20171;-92
2023/07/08 00:19:01;;;;;;;3.72;2.78;;;;;;;18.10;100.00;101064.19;6142407;28;20043;-92
2023/07/08 00:22:12;;;;;;;5.28;2.80;;;;;;;18.05;100.00;101070.69;6142888;28;20134;-92
2023/07/08 00:25:15;;;;;;;4.13;2.80;;;;;;;17.99;100.00;101060.03;6158481;28;20047;-92
2023/07/08 00:28:21;;;;;;;5.45;2.80;;;;;;;17.94;100.00;101064.94;6140823;28;20032;-91
2023/07/08 00:31:23;;;;;;;5.05;2.33;;;;;;;17.93;100.00;101056.22;6141433;28;20106;-91
2023/07/08 00:34:26;;;;;;;3.92;2.53;;;;;;;17.89;100.00;101060.16;6152538;28;20047;-91
2023/07/08 00:37:29;;;;;;;3.90;3.20;;;;;;;17.84;100.00;101052.75;6148322;28;20295;-91
2023/07/08 00:40:33;;;;;;;4.28;2.92;;;;;;;17.79;100.00;101054.19;6152718;28;20046;-91
2023/07/08 00:43:57;;;;;;;3.95;2.97;;;;;;;17.76;100.00;101046.63;6157013;28;20047;-91
2023/07/08 00:47:10;;;;;;;4.43;3.05;;;;;;;17.72;100.00;101053.97;6140451;28;20058;-91
2023/07/08 00:50:13;;;;;;;4.80;3.20;;;;;;;17.71;100.00;101046.25;6152338;28;20449;-91
2023/07/08 00:53:28;;;;;;;6.47;3.65;;;;;;;17.71;100.00;101047.06;6147135;28;20472;-91
2023/07/08 00:56:32;;;;;;;4.65;3.20;;;;;;;17.70;100.00;101047.25;6132579;28;20188;-91
2023/07/08 00:59:48;;;;;;;3.97;3.40;;;;;;;17.72;100.00;101040.06;6143677;28;20050;-91
2023/07/08 01:02:55;;;;;;;6.38;3.45;;;;;;;17.69;100.00;101037.72;6142796;28;20049;-91
2023/07/08 01:06:05;;;;;;;5.05;3.20;;;;;;;17.70;100.00;101039.41;6140996;28;20047;-91
2023/07/08 01:09:10;;;;;;;5.05;3.60;;;;;;;17.71;100.00;101044.47;6141713;28;20070;-91
2023/07/08 01:12:17;;;;;;;4.18;3.75;;;;;;;17.66;100.00;101036.25;6141981;28;20046;-91
2023/07/08 01:15:22;;;;;;;6.40;3.60;;;;;;;17.65;100.00;101032.00;6144307;28;20055;-91
2023/07/08 01:18:25;;;;;;;5.68;3.42;;;;;;;17.61;100.00;101034.13;6141362;28;20101;-90
2023/07/08 01:21:56;;;;;;;4.43;2.72;;;;;;;17.56;100.00;101025.88;6141617;28;20405;-91
2023/07/08 01:25:03;;;;;;;4.63;3.38;;;;;;;17.49;100.00;101021.41;6135754;28;20429;-91
2023/07/08 01:28:05;;;;;;;4.72;3.30;;;;;;;17.43;100.00;101030.72;6139831;28;20047;-91
2023/07/08 01:31:07;;;;;;;5.10;3.00;;;;;;;17.36;100.00;101017.41;6139479;28;20505;-91
2023/07/08 01:34:10;;;;;;;6.90;3.38;;;;;;;17.26;100.00;101029.78;6146399;28;20492;-91
2023/07/08 01:37:13;;;;;;;4.88;3.42;;;;;;;17.16;100.00;101021.19;6149817;28;20523;-91
2023/07/08 01:40:21;;;;;;;4.20;3.60;;;;;;;17.06;100.00;101021.28;6148322;28;20337;-91
2023/07/08 01:43:23;;;;;;;5.63;3.10;;;;;;;16.95;100.00;101016.31;6146937;28;20130;-91
2023/07/08 01:46:27;;;;;;;5.10;3.10;;;;;;;16.83;100.00;101015.69;6136391;28;20052;-90
2023/07/08 01:49:29;;;;;;;4.43;3.20;;;;;;;16.81;100.00;101012.41;6140654;28;20047;-90
2023/07/08 01:52:32;;;;;;;4.28;3.35;;;;;;;16.80;100.00;101013.41;6140059;28;20047;-91
2023/07/08 01:55:34;;;;;;;4.50;3.00;;;;;;;16.77;100.00;101008.44;6151073;28;20055;-91
2023/07/08 01:58:36;;;;;;;4.13;3.70;;;;;;;16.72;100.00;101006.28;6132835;28;20539;-91
2023/07/08 02:01:37;;;;;;;3.78;3.38;;;;;;;16.70;100.00;101007.38;6137224;28;20046;-90
2023/07/08 02:04:39;;;;;;;6.57;3.42;;;;;;;16.71;100.00;101006.41;6144826;28;20043;-91
2023/07/08 02:07:41;;;;;;;3.97;3.05;;;;;;;16.69;100.00;100997.88;6141121;28;20058;-91
2023/07/08 02:10:46;;;;;;;4.15;3.33;;;;;;;16.65;100.00;100996.56;6146654;28;20062;-90
2023/07/08 02:13:47;;;;;;;4.50;3.42;;;;;;;16.64;100.00;100993.09;6148584;28;20047;-90
2023/07/08 02:16:49;;;;;;;4.32;3.58;;;;;;;16.65;100.00;100992.16;6150719;28;20043;-90
2023/07/08 02:19:51;;;;;;;4.63;3.25;;;;;;;16.62;100.00;100991.59;6149135;28;20045;-91
2023/07/08 02:22:53;;;;;;;4.65;3.08;;;;;;;16.58;100.00;100986.69;6152703;28;20043;-91
2023/07/08 02:25:55;;;;;;;5.38;3.40;;;;;;;16.56;100.00;100993.03;6156715;28;20046;-91
2023/07/08 02:28:58;;;;;;;4.50;3.83;;;;;;;16.55;100.00;100992.22;6147332;28;20138;-90
2023/07/08 02:32:00;;;;;;;4.30;3.72;;;;;;;16.60;100.00;100985.72;6140808;28;20070;-91
2023/07/08 02:35:03;;;;;;;5.18;3.17;;;;;;;16.60;100.00;100986.56;6139849;28;20074;-91
2023/07/08 02:38:04;;;;;;;7.07;3.45;;;;;;;16.58;100.00;100996.31;6144543;28;20039;-90
2023/07/08 02:41:06;;;;;;;3.75;3.30;;;;;;;16.56;100.00;100998.25;6149142;28;20043;-91
2023/07/08 02:44:08;;;;;;;5.95;3.78;;;;;;;16.54;100.00;100989.75;6145068;28;20502;-91
2023/07/08 02:47:09;;;;;;;4.30;3.50;;;;;;;16.49;100.00;100990.19;6144683;28;20046;-90
2023/07/08 02:50:12;;;;;;;4.18;3.22;;;;;;;16.45;100.00;100990.66;6145776;28;20142;-91
2023/07/08 02:53:13;;;;;;;4.25;3.38;;;;;;;16.34;100.00;100986.44;6164107;28;20435;-91
2023/07/08 02:56:15;;;;;;;3.97;3.58;;;;;;;16.36;100.00;100987.94;6145243;28;20044;-91
2023/07/08 02:59:17;;;;;;;5.57;3.75;;;;;;;16.33;100.00;100985.63;6140725;28;20050;-91
2023/07/08 03:02:21;;;;;;;4.82;4.05;;;;;;;16.31;100.00;100989.34;6153927;28;20074;-91
2023/07/08 03:05:23;;;;;;;4.53;3.67;;;;;;;16.28;100.00;100987.84;6158805;28;20051;-91
2023/07/08 03:08:25;;;;;;;5.05;4.03;;;;;;;16.27;100.00;100985.38;6142490;28;20334;-90
2023/07/08 03:11:27;;;;;;;4.32;3.55;;;;;;;16.26;100.00;100988.97;6144848;28;20115;-91
2023/07/08 03:14:29;;;;;;;5.75;3.70;;;;;;;16.28;100.00;100990.47;6144463;28;20220;-91
2023/07/08 03:17:30;;;;;;;4.80;3.80;;;;;;;16.22;100.00;100985.00;6144363;28;20113;-90
2023/07/08 03:20:33;;;;;;;3.97;3.50;;;;;;;16.20;100.00;100990.38;6143910;28;20039;-91
2023/07/08 03:23:34;;;;;;;5.32;3.63;;;;;;;16.21;100.00;100999.03;6144520;28;20051;-91
2023/07/08 03:26:36;;;;;;;4.70;4.05;;;;;;;16.17;100.00;100997.69;6144092;28;20046;-90
2023/07/08 03:29:38;;;;;;;4.90;3.60;;;;;;;16.15;100.00;101005.69;6143108;28;20516;-90
2023/07/08 03:32:40;;;;;;;6.45;3.90;;;;;;;16.17;100.00;100992.47;6139467;28;20493;-91
2023/07/08 03:35:42;;;;;;;5.35;4.35;;;;;;;16.12;100.00;101006.78;6143974;28;20429;-90
2023/07/08 03:38:43;;;;;;;5.03;3.90;;;;;;;16.13;100.00;100994.56;6143873;28;20039;-91
2023/07/08 03:41:48;;;;;;;4.53;3.75;;;;;;;16.17;100.00;100995.06;6142218;28;20217;-91
2023/07/08 03:44:50;;;;;;;5.72;3.63;;;;;;;16.20;100.00;100992.16;6141780;28;20094;-90
2023/07/08 03:47:53;;;;;;;9.43;4.35;;;;;;;16.22;100.00;100985.81;6144078;28;20129;-91
2023/07/08 03:50:55;;;;;;;6.82;4.60;;;;;;;16.17;100.00;100992.47;6147675;28;20043;-91
2023/07/08 03:53:57;;;;;;;4.80;3.95;;;;;;;16.18;100.00;100991.50;6142011;28;20039;-90
2023/07/08 03:56:59;;;;;;;4.45;4.03;;;;;;;16.19;100.00;101003.59;6142125;28;20422;-91
2023/07/08 04:00:02;;;;;;;4.68;4.00;;;;;;;16.16;100.00;101007.31;6154918;28;20065;-90
2023/07/08 04:03:14;;;;;;;5.22;4.00;;;;;;;16.17;100.00;101005.50;6143006;28;20472;-90
2023/07/08 04:06:16;;;;;;;5.07;3.78;;;;;;;16.26;100.00;100991.59;6141387;28;20051;-91
2023/07/08 04:09:17;;;;;;;4.68;3.80;;;;;;;16.29;100.00;100989.50;6141658;28;20050;-91
2023/07/08 04:12:20;;;;;;;4.88;3.58;;;;;;;16.32;100.00;100990.97;6142999;28;20044;-91
2023/07/08 04:15:25;;;;;;;4.18;3.60;;;;;;;16.35;100.00;100996.75;6142062;28;20050;-92
2023/07/08 04:18:28;;;;;;;7.47;3.60;;;;;;;16.36;100.00;100993.16;6143002;28;20171;-91
2023/07/08 04:21:30;;;;;;;6.68;3.60;;;;;;;16.38;100.00;100989.59;6142932;28;20186;-92
2023/07/08 04:24:32;;;;;;;6.07;3.65;;;;;;;16.42;100.00;100989.16;6141965;28;20173;-91
2023/07/08 04:27:33;;;;;;;4.95;3.63;;;;;;;16.44;100.00;100996.81;6142051;28;20047;-91
2023/07/08 04:30:40;;;;;;;4.55;3.75;;;;;;;16.46;100.00;100990.47;6143187;28;20058;-91
2023/07/08 04:33:42;;;;;;;5.50;3.92;;;;;;;16.51;100.00;101000.50;6142047;28;20123;-92
2023/07/08 04:36:44;;;;;;;5.65;4.20;;;;;;;16.50;100.00;101002.28;6162263;28;20120;-91
2023/07/08 04:39:46;;;;;;;5.55;4.10;;;;;;;16.54;100.00;101002.81;6144059;28;20421;-91
2023/07/08 04:42:49;;;;;;;5.10;4.20;;;;;;;16.57;100.00;101005.13;6144821;28;20513;-91
2023/07/08 04:45:52;;;;;;;6.82;4.10;;;;;;;16.61;100.00;100997.81;6138416;28;20039;-91
2023/07/08 04:48:55;;;;;;;6.68;4.20;;;;;;;16.66;100.00;101008.66;6143377;28;20047;-91
2023/07/08 04:51:59;;;;;;;4.40;3.97;;;;;;;16.73;100.00;100999.25;6141974;28;20059;-91
2023/07/08 04:55:00;;;;;;;4.82;3.90;;;;;;;16.76;100.00;101004.97;6143196;28;20039;-91
2023/07/08 04:58:02;;;;;;;4.97;3.80;;;;;;;16.78;100.00;101003.06;6145353;28;20075;-91
2023/07/08 05:01:04;;;;;;;5.40;4.28;;;;;;;16.83;100.00;101005.25;6144327;28;20042;-91
2023/07/08 05:04:07;;;;;;;4.35;3.95;;;;;;;16.86;100.00;101012.78;6142525;28;20044;-91
2023/07/08 05:07:09;;;;;;;4.97;4.22;;;;;;;16.89;100.00;101009.84;6155132;28;20524;-91
2023/07/08 05:10:10;;;;;;;4.55;4.00;;;;;;;16.93;100.00;101011.22;6160076;28;20502;-92
2023/07/08 05:13:12;;;;;;;6.70;4.47;;;;;;;16.97;100.00;101009.13;6145203;28;20122;-91
2023/07/08 05:16:14;;;;;;;8.15;4.65;;;;;;;17.00;100.00;101017.47;6142576;28;20046;-91
2023/07/08 05:19:16;;;;;;;5.65;4.18;;;;;;;17.05;100.00;101017.03;6140233;28;20536;-91
2023/07/08 05:22:22;;;;;;;5.43;4.22;;;;;;;17.09;100.00;101013.16;6151658;28;20039;-91
2023/07/08 05:25:24;;;;;;;7.20;4.47;;;;;;;17.18;100.00;101014.03;6151364;28;20649;-91
2023/07/08 05:28:26;;;;;;;6.43;4.38;;;;;;;17.22;100.00;101024.03;6148365;28;20055;-91
2023/07/08 05:31:28;;;;;;;5.70;4.60;;;;;;;17.28;100.00;101013.94;6140890;28;20492;-91
2023/07/08 05:34:33;;;;;;;5.35;4.47;;;;;;;17.31;100.00;101016.22;6152664;28;20162;-91
2023/07/08 05:37:35;;;;;;;8.60;5.07;;;;;;;17.37;100.00;101008.59;6141615;28;20058;-92
2023/07/08 05:40:37;;;;;;;7.00;5.38;;;;;;;17.41;100.00;101006.47;6140036;28;20046;-92
2023/07/08 05:43:38;;;;;;;5.88;4.90;;;;;;;17.47;100.00;100998.03;6154080;28;20488;-92
2023/07/08 05:46:40;;;;;;;5.28;4.50;;;;;;;17.54;100.00;101003.44;6163277;28;20409;-92
2023/07/08 05:49:42;;;;;;;5.15;4.60;;;;;;;17.62;100.00;101001.72;6160912;28;20053;-91
2023/07/08 05:52:44;;;;;;;6.20;4.65;;;;;;;17.68;100.00;100999.44;6147746;28;20174;-92
2023/07/08 05:55:47;;;;;;;7.65;4.95;;;;;;;17.75;100.00;101006.53;6138919;28;20047;-92
2023/07/08 05:58:50;;;;;;;6.65;4.80;;;;;;;17.84;100.00;101004.81;6140928;28;20094;-92
2023/07/08 06:01:52;;;;;;;6.18;4.85;;;;;;;17.90;100.00;101012.03;6140505;28;20478;-92
2023/07/08 06:04:54;;;;;;;7.75;4.95;;;;;;;18.01;100.00;101008.28;6141091;28;20047;-92
2023/07/08 06:07:55;;;;;;;7.07;5.00;;;;;;;18.10;100.00;101006.53;6140552;28;20058;-91
2023/07/08 06:10:57;;;;;;;5.55;4.40;;;;;;;18.14;100.00;101008.69;6142240;28;20546;-92
2023/07/08 06:14:00;;;;;;;6.93;5.53;;;;;;;18.19;100.00;100997.72;6147844;28;20489;-92
2023/07/08 06:17:01;;;;;;;5.70;4.40;;;;;;;18.33;100.00;100998.91;6146142;28;20039;-92
2023/07/08 06:20:04;;;;;;;6.10;5.15;;;;;;;18.40;100.00;100999.91;6146737;28;20043;-92
2023/07/08 06:23:06;;;;;;;6.15;5.10;;;;;;;18.52;100.00;101003.84;6142241;28;20130;-92
2023/07/08 06:26:08;;;;;;;6.45;4.50;;;;;;;18.58;100.00;101003.19;6144757;28;20544;-92
2023/07/08 06:29:10;;;;;;;7.57;4.78;;;;;;;18.65;100.00;101004.19;6145824;28;20043;-92
2023/07/08 06:32:11;;;;;;;6.05;4.72;;;;;;;18.70;100.00;101008.97;6140202;28;20046;-92
2023/07/08 06:35:13;;;;;;;6.65;4.85;;;;;;;18.79;100.00;101009.84;6142099;28;20047;-91
2023/07/08 06:38:15;;;;;;;6.05;4.72;;;;;;;18.83;100.00;101006.72;6138167;28;20043;-92
2023/07/08 06:41:17;;;;;;;9.80;5.07;;;;;;;18.93;100.00;101006.53;6142072;28;20166;-92
2023/07/08 06:44:18;;;;;;;6.10;4.82;;;;;;;19.05;100.00;101014.91;6142404;28;20116;-92
2023/07/08 06:47:21;;;;;;;6.15;5.13;;;;;;;19.10;100.00;101016.03;6129284;28;20067;-92
2023/07/08 06:50:23;;;;;;;6.20;4.85;;;;;;;19.18;100.00;101006.53;6140997;28;20043;-92
2023/07/08 06:53:25;;;;;;;7.82;4.80;;;;;;;19.19;100.00;101016.06;6146901;28;20043;-91
2023/07/08 06:56:27;;;;;;;7.07;4.80;;;;;;;19.36;100.00;101017.69;6144486;28;20054;-91
2023/07/08 06:59:28;;;;;;;6.05;4.70;;;;;;;19.44;100.00;101015.03;6140278;28;20039;-92
2023/07/08 07:02:30;;;;;;;5.93;5.00;;;;;;;19.53;100.00;101014.03;6141727;28;20050;-92
2023/07/08 07:05:32;;;;;;;6.28;4.63;;;;;;;19.58;100.00;101013.53;6162410;28;20436;-92
2023/07/08 07:08:34;;;;;;;6.05;5.00;;;;;;;19.61;100.00;101015.00;6154237;28;20053;-92
2023/07/08 07:11:36;;;;;;;5.78;4.95;;;;;;;19.67;100.00;101006.44;6148824;28;20047;-91
2023/07/08 07:14:37;;;;;;;6.38;5.15;;;;;;;19.75;100.00;101003.81;6150437;28;20043;-92
2023/07/08 07:17:42;;;;;;;5.90;5.30;;;;;;;19.83;100.00;101005.59;6148860;28;20039;-92
2023/07/08 07:20:50;;;;;;;6.57;4.80;;;;;;;19.93;100.00;101009.66;6144045;28;20054;-92
2023/07/08 07:23:52;;;;;;;6.47;4.72;;;;;;;20.04;100.00;101010.28;6151049;28;20047;-92
2023/07/08 07:26:54;;;;;;;7.07;4.57;;;;;;;20.19;100.00;101013.81;6122456;28;20054;-92
2023/07/08 07:29:59;;;;;;;6.45;4.93;;;;;;;20.30;100.00;101007.38;6149892;28;20516;-91
2023/07/08 07:33:02;;;;;;;4.82;4.38;;;;;;;20.42;100.00;101001.53;6159288;28;20500;-92
2023/07/08 07:36:05;;;;;;;5.65;4.28;;;;;;;20.53;100.00;101004.75;6145453;28;20409;-92
2023/07/08 07:39:06;;;;;;;5.18;4.60;;;;;;;20.63;100.00;101002.72;6143871;28;20047;-92
2023/07/08 07:42:09;;;;;;;5.18;4.70;;;;;;;20.76;100.00;101008.22;6143833;28;20055;-92
2023/07/08 07:45:12;;;;;;;6.50;4.40;;;;;;;20.81;100.00;100997.16;6142105;28;20075;-92
2023/07/08 07:48:14;;;;;;;5.60;4.57;;;;;;;20.89;100.00;100998.91;6154819;28;20054;-92
2023/07/08 07:51:16;;;;;;;8.77;4.57;;;;;;;21.00;100.00;100991.41;6143706;28;20479;-92
2023/07/08 07:54:18;;;;;;;5.22;4.70;;;;;;;21.21;100.00;100998.59;6155416;28;20118;-92
2023/07/08 07:57:20;;;;;;;5.47;4.30;;;;;;;21.33;100.00;101000.81;6143605;28;20334;-92
2023/07/08 08:00:22;;;;;;;6.13;4.20;;;;;;;21.40;100.00;100999.13;6143755;28;20051;-92
2023/07/08 08:03:24;;;;;;;6.57;4.15;;;;;;;21.46;100.00;101001.84;6142388;28;20046;-92
2023/07/08 08:06:26;;;;;;;6.75;4.25;;;;;;;21.53;100.00;100995.88;6142538;28;20066;-92
2023/07/08 08:09:27;;;;;;;5.68;3.97;;;;;;;21.72;100.00;100998.78;6145061;28;20107;-92
2023/07/08 08:12:30;;;;;;;7.28;4.25;;;;;;;21.87;100.00;101000.56;6143249;28;20043;-94
2023/07/08 08:15:45;;;;;;;4.85;3.97;;;;;;;22.03;100.00;101002.19;6153615;28;20387;-94
2023/07/08 08:18:47;;;;;;;7.03;4.13;;;;;;;22.12;100.00;100998.44;6142294;28;20501;-94
2023/07/08 08:21:49;;;;;;;6.10;4.00;;;;;;;22.19;100.00;101009.06;6142822;28;20070;-94
2023/07/08 08:24:50;;;;;;;5.18;4.53;;;;;;;22.33;100.00;101005.59;6142604;28;20051;-94
2023/07/08 08:27:52;;;;;;;8.52;4.53;;;;;;;22.33;100.00;101008.22;6143089;28;20576;-93
2023/07/08 08:30:55;;;;;;;7.55;4.28;;;;;;;22.41;100.00;101007.28;6139282;28;20049;-94
2023/07/08 08:33:57;;;;;;;4.70;3.97;;;;;;;22.49;100.00;101015.91;6142633;28;20055;-94
2023/07/08 08:36:59;;;;;;;7.07;4.72;;;;;;;22.56;100.00;101008.88;6144496;28;20171;-93
2023/07/08 08:40:02;;;;;;;5.85;4.35;;;;;;;22.65;100.00;101017.47;6128381;28;20421;-94
2023/07/08 08:43:09;;;;;;;6.30;4.32;;;;;;;22.81;100.00;101016.44;6141915;28;20058;-94
2023/07/08 08:46:23;;;;;;;7.20;4.45;;;;;;;22.95;100.00;101004.94;6142482;28;20508;-94
2023/07/08 08:49:44;;;;;;;7.97;4.72;;;;;;;22.97;100.00;101002.97;6131484;28;20523;-94
2023/07/08 08:52:46;;;;;;;7.45;4.43;;;;;;;23.02;100.00;101001.59;6142124;28;20047;-94
2023/07/08 08:55:56;;;;;;;5.88;4.63;;;;;;;23.23;100.00;101004.19;6141831;28;20050;-93
2023/07/08 08:59:18;;;;;;;9.02;4.60;;;;;;;23.49;100.00;101008.00;6141682;28;20046;-93
2023/07/08 09:02:41;;;;;;;7.05;4.25;;;;;;;23.65;100.00;101008.50;6152573;28;20047;-93
2023/07/08 09:05:45;;;;;;;7.18;4.30;;;;;;;23.77;100.00;101007.97;6143972;28;20051;-93
2023/07/08 09:08:49;;;;;;;5.68;4.18;;;;;;;23.96;100.00;101003.78;6141942;28;20047;-93
2023/07/08 09:12:00;;;;;;;7.40;4.15;;;;;;;24.09;100.00;101006.47;6141924;28;20039;-93
2023/07/08 09:15:15;;;;;;;6.50;4.53;;;;;;;24.18;100.00;100999.19;6141569;28;20039;-93
2023/07/08 09:18:25;;;;;;;7.43;4.25;;;;;;;24.27;100.00;100995.31;6135803;28;20510;-93
2023/07/08 09:21:43;;;;;;;5.97;4.90;;;;;;;24.38;100.00;100992.09;6141473;28;20170;-93
2023/07/08 09:24:59;;;;;;;8.18;5.43;;;;;;;23.81;100.00;100999.44;6140756;28;20405;-93
2023/07/08 09:28:01;;;;;;;10.23;4.85;;;;;;;23.94;100.00;100997.88;6141943;28;20043;-94
2023/07/08 09:31:06;;;;;;;8.80;4.70;;;;;;;23.98;100.00;100989.34;6141800;28;20493;-93
2023/07/08 09:34:11;;;;;;;8.02;5.00;;;;;;;24.08;100.00;100986.34;6139756;28;20039;-93
2023/07/08 09:37:36;;;;;;;7.95;5.10;;;;;;;24.19;100.00;100985.75;6143431;28;20035;-93
2023/07/08 09:40:38;;;;;;;6.40;4.00;;;;;;;24.32;100.00;100990.25;6130663;28;20406;-93
2023/07/08 09:43:40;;;;;;;10.40;5.10;;;;;;;24.48;100.00;100992.56;6153033;28;20051;-93
2023/07/08 09:46:43;;;;;;;8.68;4.53;;;;;;;24.65;100.00;100994.81;6150692;28;20173;-94
2023/07/08 09:49:45;;;;;;;7.55;4.60;;;;;;;24.70;100.00;100989.72;6142992;28;20058;-93
2023/07/08 09:52:48;;;;;;;6.75;4.90;;;;;;;24.81;100.00;100988.31;6141400;28;20039;-93
2023/07/08 09:55:51;;;;;;;9.27;5.20;;;;;;;24.93;100.00;100997.25;6147614;28;20354;-94
2023/07/08 09:58:53;;;;;;;9.00;4.13;;;;;;;25.05;100.00;100992.97;6146263;28;20049;-93
2023/07/08 10:01:55;;;;;;;7.82;4.57;;;;;;;25.12;100.00;100991.13;6143732;28;20047;-93
2023/07/08 10:05:01;;;;;;;7.07;4.25;;;;;;;25.34;100.00;100993.56;6134127;28;20265;-93
2023/07/08 10:08:16;;;;;;;8.48;4.47;;;;;;;25.53;100.00;100989.25;6140921;28;20898;-92
2023/07/08 10:11:39;;;;;;;5.40;4.20;;;;;;;25.61;100.00;100988.19;6139621;28;20059;-93
2023/07/08 10:14:51;;;;;;;5.45;3.90;;;;;;;25.70;100.00;100987.75;6153448;28;20038;-93
2023/07/08 10:17:55;;;;;;;5.10;4.25;;;;;;;25.80;100.00;100995.25;6140736;28;20050;-93
2023/07/08 10:21:11;;;;;;;7.35;4.30;;;;;;;25.84;100.00;100991.19;6151883;28;20412;-93
2023/07/08 10:24:50;;;;;;;6.68;4.18;;;;;;;25.90;100.00;100985.06;6143744;28;20050;-92
2023/07/08 10:28:13;;;;;;;4.83;4.20;;;;;;;25.92;100.00;100987.50;6133682;28;20043;-92
2023/07/08 10:31:31;;;;;;;7.72;4.38;;;;;;;26.06;100.00;100989.06;6140886;28;20130;-92
2023/07/08 10:34:50;;;;;;;6.00;4.22;;;;;;;26.13;100.00;100989.00;6141402;28;20194;-92
2023/07/08 10:38:28;;;;;;;6.13;4.03;;;;;;;26.32;100.00;100992.59;6140188;28;20051;-92
2023/07/08 10:42:04;;;;;;;8.93;4.03;;;;;;;26.41;100.00;100993.97;6133806;28;20192;-92
2023/07/08 10:45:31;;;;;;;5.40;4.05;;;;;;;26.55;100.00;100992.03;6145587;28;20051;-93
2023/07/08 10:49:00;;;;;;;5.60;4.07;;;;;;;26.62;100.00;100985.66;6135561;28;20073;-92
2023/07/08 10:52:29;;;;;;;8.75;4.68;;;;;;;26.77;100.00;100984.53;6118197;29;20059;-93
2023/07/08 10:55:49;;;;;;;7.55;4.20;;;;;;;26.89;100.00;100988.09;6117817;29;20080;-93
2023/07/08 10:59:13;;;;;;;6.50;4.50;;;;;;;27.01;100.00;100977.56;6111522;29;20062;-93
2023/07/08 11:02:52;;;;;;;6.35;4.90;;;;;;;27.20;100.00;100983.75;6109313;29;20122;-92
2023/07/08 11:06:04;;;;;;;6.70;4.35;;;;;;;27.38;100.00;100981.09;6109402;29;20051;-92
2023/07/08 11:09:10;;;;;;;7.82;4.70;;;;;;;27.49;100.00;100976.88;6117668;29;20059;-92
2023/07/08 11:12:33;;;;;;;6.85;4.90;;;;;;;27.55;100.00;100983.97;6118350;29;20044;-92
2023/07/08 11:16:10;;;;;;;5.65;4.63;;;;;;;27.64;100.00;100977.31;6117111;29;20060;-93
2023/07/08 11:19:24;;;;;;;6.40;4.43;;;;;;;27.64;100.00;100974.66;6118237;29;20163;-92
2023/07/08 11:22:28;;;;;;;6.70;4.95;;;;;;;27.77;100.00;100971.00;6116441;29;20052;-92
2023/07/08 11:25:31;;;;;;;9.07;5.40;;;;;;;27.89;100.00;100963.94;6117030;29;20422;-93
2023/07/08 11:28:34;;;;;;;6.32;4.60;;;;;;;28.07;100.00;100967.56;6128382;28;20565;-92
2023/07/08 11:31:36;;;;;;;7.57;5.53;;;;;;;28.23;100.00;100964.28;6149880;28;20047;-93
2023/07/08 11:34:43;;;;;;;7.68;5.20;;;;;;;28.30;100.00;100961.53;6151513;28;20183;-92
2023/07/08 11:37:45;;;;;;;6.80;5.55;;;;;;;28.49;100.00;100959.59;6144573;28;20106;-92
2023/07/08 11:40:56;;;;;;;7.57;5.68;;;;;;;28.65;100.00;100942.97;6147260;28;20036;-92
2023/07/08 11:44:04;;;;;;;7.65;5.22;;;;;;;28.84;100.00;100950.81;6148152;28;20054;-92
2023/07/08 11:47:16;;;;;;;7.78;5.22;;;;;;;28.98;100.00;100941.56;6144264;28;20050;-93
2023/07/08 11:50:30;;;;;;;7.70;5.07;;;;;;;29.19;100.00;100945.50;6160132;28;20121;-92
2023/07/08 11:53:58;;;;;;;10.13;4.75;;;;;;;29.31;100.00;100948.13;6138536;28;20513;-92
2023/07/08 11:57:04;;;;;;;8.95;5.03;;;;;;;29.48;100.00;100941.00;6141440;28;20070;-92
2023/07/08 12:00:32;;;;;;;7.72;5.05;;;;;;;29.70;100.00;100938.53;6156335;28;20042;-93
2023/07/08 12:03:39;;;;;;;5.43;4.70;;;;;;;29.88;100.00;100934.06;6152876;28;20039;-93
2023/07/08 12:06:49;;;;;;;7.03;5.30;;;;;;;30.07;100.00;100940.00;6158023;28;20394;-93
2023/07/08 12:09:59;;;;;;;6.75;4.57;;;;;;;30.19;100.00;100928.19;6144152;28;20074;-92
2023/07/08 12:13:02;;;;;;;;;;;;;;;30.37;100.00;100927.16;6144219;28;20513;-92
2023/07/08 12:16:11;;;;;;;7.43;4.80;;;;;;;30.52;100.00;100923.94;6143574;28;19933;-92
2023/07/08 12:19:17;;;;;;;5.13;4.32;;;;;;;30.69;100.00;100935.41;6144598;28;20332;-93
2023/07/08 12:22:20;;;;;;;6.35;4.18;;;;;;;30.83;99.91;100929.75;6143273;28;20290;-92
2023/07/08 12:25:26;;;;;;;5.97;4.53;;;;;;;31.05;96.56;100929.75;6156417;28;20047;-93
2023/07/08 12:28:28;;;;;;;5.43;4.65;;;;;;;31.15;88.77;100932.56;6152039;28;20050;-92
2023/07/08 12:31:31;;;;;;;5.50;3.92;;;;;;;31.23;100.00;100923.28;6142079;28;20520;-93
2023/07/08 12:34:33;;;;;;;6.03;5.20;;;;;;;31.42;95.27;100921.16;6157927;28;20046;-93
2023/07/08 12:37:35;;;;;;;6.53;5.07;;;;;;;31.65;90.69;100920.06;6144000;28;20074;-93
2023/07/08 12:40:37;;;;;;;6.63;4.30;;;;;;;31.77;84.39;100916.16;6141539;28;20126;-93
2023/07/08 12:43:39;;;;;;;5.05;4.40;;;;;;;31.92;89.90;100912.00;6144167;28;20043;-93
2023/07/08 12:46:41;;;;;;;6.88;4.85;;;;;;;32.11;90.10;100912.47;6142581;28;20089;-93
2023/07/08 12:49:43;;;;;;;5.10;4.50;;;;;;;32.22;85.17;100910.69;6139277;28;20409;-93
2023/07/08 12:52:46;;;;;;;4.70;4.10;;;;;;;32.32;80.74;100914.28;6147746;28;20070;-93
2023/07/08 12:55:52;;;;;;;6.57;4.50;;;;;;;32.38;78.24;100918.59;6147241;28;20301;-93
2023/07/08 12:58:57;;;;;;;4.43;4.03;;;;;;;32.46;81.32;100908.44;6149237;28;20054;-94
2023/07/08 13:01:59;;;;;;;4.45;4.03;;;;;;;32.59;79.72;100919.53;6118373;29;20592;-94
2023/07/08 13:05:03;;;;;;;4.70;4.10;;;;;;;32.64;79.05;100915.28;6152091;28;20031;-93
2023/07/08 13:08:05;;;;;;;5.43;4.05;;;;;;;32.77;79.94;100904.09;6143760;28;20043;-93
2023/07/08 13:11:07;;;;;;;5.20;4.10;;;;;;;32.93;92.39;100896.94;6143030;28;20039;-93
2023/07/08 13:14:09;;;;;;;6.35;3.95;;;;;;;33.07;79.29;100908.84;6150448;28;20078;-93
2023/07/08 13:17:14;;;;;;;4.75;4.00;;;;;;;33.20;68.65;100911.03;6142188;28;20441;-93
2023/07/08 13:20:17;;;;;;;4.72;4.28;;;;;;;33.27;68.83;100904.59;6147269;28;20039;-93
2023/07/08 13:23:21;;;;;;;7.35;3.78;;;;;;;33.32;65.73;100889.34;6147912;28;20047;-93
2023/07/08 13:26:27;;;;;;;4.85;4.22;;;;;;;33.39;80.65;100886.38;6142294;28;20035;-93
2023/07/08 13:29:34;;;;;;;6.65;4.65;;;;;;;33.56;87.25;100883.50;6141599;28;20054;-93
2023/07/08 13:32:37;;;;;;;7.75;4.50;;;;;;;33.72;66.41;100893.19;6140669;28;20414;-93
2023/07/08 13:35:40;;;;;;;4.65;4.15;;;;;;;33.84;65.02;100895.63;6139135;28;20098;-93
2023/07/08 13:38:43;;;;;;;5.00;4.05;;;;;;;33.93;59.73;100893.19;6145963;28;20054;-93
2023/07/08 13:41:45;;;;;;;4.88;4.38;;;;;;;34.01;56.59;100896.19;6141842;28;20529;-93
2023/07/08 13:44:49;;;;;;;4.78;4.32;;;;;;;34.00;78.34;100889.16;6141144;28;20039;-93
2023/07/08 13:48:00;;;;;;;6.65;4.55;;;;;;;34.08;67.50;100893.22;6150128;28;20053;-93
2023/07/08 13:51:18;;;;;;;5.22;4.55;;;;;;;34.19;70.31;100885.97;6139507;28;20517;-94
2023/07/08 13:54:23;;;;;;;6.53;4.43;;;;;;;34.32;58.42;100885.41;6151280;28;20047;-93
2023/07/08 13:57:34;;;;;;;4.38;3.97;;;;;;;34.38;60.29;100887.00;6157277;28;20149;-93
2023/07/08 14:00:36;;;;;;;5.53;4.38;;;;;;;34.42;55.14;100879.22;6142181;28;20158;-94
2023/07/08 14:03:38;;;;;;;5.40;3.95;;;;;;;34.48;60.87;100884.28;6140725;28;20106;-93
2023/07/08 14:06:40;;;;;;;4.03;3.72;;;;;;;34.48;69.98;100892.34;6135950;29;20047;-93
2023/07/08 14:09:42;;;;;;;4.15;3.75;;;;;;;34.69;57.70;100886.97;6154056;28;20039;-94
2023/07/08 14:12:43;;;;;;;4.88;4.15;;;;;;;34.83;53.67;100887.97;6152901;28;20086;-94
2023/07/08 14:15:46;;;;;;;4.78;4.28;;;;;;;34.83;57.95;100885.28;6140773;28;20047;-94